KIFP/IFP METAR and TAF weather

Enter ICAO airport designator
Station Type Date Time Source
KIFP METAR 2019/06/17 14:50 UTC NOAA

KIFP 171450Z 02013KT 10SM FEW140 30/10 A2976


Station Type Date Time Source
KIFP Decoded METAR 2019/06/17 14:50 UTC NOAA

Bullhead City, Laughlin/Bullhead International Airport, AZ, United States (KIFP) 35-09-27N 114-33-34W
Jun 17, 2019 - 10:50 AM EDT / 2019.06.17 1450 UTC
Wind: from the NNE (020 degrees) at 15 MPH (13 KT):0
Visibility: 10 mile(s):0
Sky conditions: mostly clear
Temperature: 86 F (30 C)
Dew Point: 50 F (10 C)
Relative Humidity: 28%
Pressure (altimeter): 29.76 in. Hg (1007 hPa)
ob: KIFP 171450Z 02013KT 10SM FEW140 30/10 A2976
cycle: 15

Station Type Date Time Source
KIFP TAF 2019/06/17 12:24 UTC NOAA

TAF KIFP 171120Z 1712/1812 04011KT P6SM FEW250
FM171300 VRB05KT P6SM FEW250
FM171800 19010G20KT P6SM FEW120 FEW250
FM180400 16007KT P6SM FEW250

Example: see airport list